TLPC/SLU METAR and TAF weather

Enter ICAO airport designator
Station Type Date Time Source
TLPC METAR 2019/12/08 00:00 UTC NOAA

TLPC 080000Z 08006KT 9999 BKN021 27/23 Q1014 NOSIG


Station Type Date Time Source
TLPC Decoded METAR 2019/12/08 00:00 UTC NOAA

Vigie, Saint Lucia (TLPC) 14-01N 061-00W 2M
Dec 07, 2019 - 07:00 PM EST / 2019.12.08 0000 UTC
Wind: from the E (080 degrees) at 7 MPH (6 KT):0
Visibility: greater than 7 mile(s):0
Sky conditions: mostly cloudy
Temperature: 80 F (27 C)
Dew Point: 73 F (23 C)
Relative Humidity: 78%
Pressure (altimeter): 29.94 in. Hg (1014 hPa)
ob: TLPC 080000Z 08006KT 9999 BKN021 27/23 Q1014 NOSIG
cycle: 0

Station Type Date Time Source
TLPC TAF 2019/12/07 18:59 UTC NOAA

TAF TLPC 071700Z 0718/0818 09009KT 9999 SCT025
TEMPO 0722/0812 SHRA BKN015

Example: see airport list